createdAt,value
2018-03-11T00:00:01.940Z,1005.56
2018-03-11T00:01:01.581Z,1005.53
2018-03-11T00:02:01.645Z,1005.52
2018-03-11T00:03:01.598Z,1005.49
2018-03-11T00:04:01.644Z,1005.5
2018-03-11T00:05:01.592Z,1005.52
2018-03-11T00:06:01.607Z,1005.55
2018-03-11T00:07:01.608Z,1005.52
2018-03-11T00:08:01.604Z,1005.53
2018-03-11T00:09:02.414Z,1005.5
2018-03-11T00:10:01.740Z,1005.47
2018-03-11T00:11:01.806Z,1005.47
2018-03-11T00:12:01.632Z,1005.41
2018-03-11T00:13:01.631Z,1005.38
2018-03-11T00:14:01.777Z,1005.34
2018-03-11T00:15:01.637Z,1005.37
2018-03-11T00:16:01.728Z,1005.34
2018-03-11T00:17:01.701Z,1005.35
2018-03-11T00:18:01.672Z,1005.39
2018-03-11T00:19:01.642Z,1005.37
2018-03-11T00:20:01.640Z,1005.34
2018-03-11T00:21:01.660Z,1005.33
2018-03-11T00:22:01.644Z,1005.3
2018-03-11T00:23:01.655Z,1005.33
2018-03-11T00:24:01.665Z,1005.29
2018-03-11T00:25:01.670Z,1005.27
2018-03-11T00:26:01.836Z,1005.25
2018-03-11T00:27:01.709Z,1005.24
2018-03-11T00:28:01.681Z,1005.22
2018-03-11T00:29:01.680Z,1005.22
2018-03-11T00:30:01.680Z,1005.24
2018-03-11T00:31:01.679Z,1005.24
2018-03-11T00:32:01.740Z,1005.24
2018-03-11T00:33:01.730Z,1005.26
2018-03-11T00:34:01.707Z,1005.22
2018-03-11T00:35:01.726Z,1005.25
2018-03-11T00:36:01.699Z,1005.3
2018-03-11T00:37:01.747Z,1005.25
2018-03-11T00:38:01.722Z,1005.28
2018-03-11T00:39:01.703Z,1005.26
2018-03-11T00:40:01.718Z,1005.25
2018-03-11T00:41:01.710Z,1005.21
2018-03-11T00:42:01.726Z,1005.18
2018-03-11T00:43:01.726Z,1005.18
2018-03-11T00:44:01.732Z,1005.16
2018-03-11T00:45:01.725Z,1005.17
2018-03-11T00:46:01.746Z,1005.11
2018-03-11T00:47:01.745Z,1005.14
2018-03-11T00:48:01.736Z,1005.11
2018-03-11T00:49:02.006Z,1005.08
2018-03-11T00:50:01.740Z,1005.09
2018-03-11T00:51:01.744Z,1005.07
2018-03-11T00:52:01.741Z,1005.06
2018-03-11T00:53:01.773Z,1005.03
2018-03-11T00:54:01.765Z,1004.99
2018-03-11T00:55:01.749Z,1004.98
2018-03-11T00:56:01.756Z,1004.97
2018-03-11T00:57:01.754Z,1004.91
2018-03-11T00:58:01.762Z,1004.93
2018-03-11T00:59:01.823Z,1004.92
2018-03-11T01:00:01.761Z,1004.9
2018-03-11T01:01:01.763Z,1004.88
2018-03-11T01:02:01.779Z,1004.83
2018-03-11T01:03:01.772Z,1004.85
2018-03-11T01:04:01.793Z,1004.8
2018-03-11T01:05:01.785Z,1004.85
2018-03-11T01:06:01.796Z,1004.83
2018-03-11T01:07:02.114Z,1004.84
2018-03-11T01:08:01.814Z,1004.81
2018-03-11T01:09:01.800Z,1004.84
2018-03-11T01:10:01.948Z,1004.84
2018-03-11T01:11:01.834Z,1004.84
2018-03-11T01:12:01.803Z,1004.8
2018-03-11T01:13:01.860Z,1004.8
2018-03-11T01:14:01.834Z,1004.79
2018-03-11T01:15:01.907Z,1004.8
2018-03-11T01:16:01.811Z,1004.84
2018-03-11T01:17:01.879Z,1004.79
2018-03-11T01:18:01.827Z,1004.79
2018-03-11T01:19:04.919Z,1004.76
2018-03-11T01:20:02.474Z,1004.77
2018-03-11T01:21:02.029Z,1004.76
2018-03-11T01:22:02.823Z,1004.77
2018-03-11T01:23:02.888Z,1004.74
2018-03-11T01:24:01.909Z,1004.69
2018-03-11T01:25:03.469Z,1004.67
2018-03-11T01:26:01.876Z,1004.66
2018-03-11T01:27:01.860Z,1004.6
2018-03-11T01:28:01.863Z,1004.64
2018-03-11T01:29:01.864Z,1004.65
2018-03-11T01:30:01.859Z,1004.6
2018-03-11T01:31:01.890Z,1004.62
2018-03-11T01:32:01.866Z,1004.6
2018-03-11T01:33:01.868Z,1004.56
2018-03-11T01:34:01.881Z,1004.53
2018-03-11T01:35:01.986Z,1004.53
2018-03-11T01:36:01.880Z,1004.54
2018-03-11T01:37:01.885Z,1004.46
2018-03-11T01:38:01.894Z,1004.46
2018-03-11T01:39:01.898Z,1004.44
2018-03-11T01:40:01.902Z,1004.4
2018-03-11T01:41:01.919Z,1004.38
2018-03-11T01:42:01.907Z,1004.36
2018-03-11T01:43:01.910Z,1004.36
2018-03-11T01:44:01.904Z,1004.28
2018-03-11T01:45:01.919Z,1004.27
2018-03-11T01:46:01.910Z,1004.22
2018-03-11T01:47:01.937Z,1004.19
2018-03-11T01:48:01.923Z,1004.11
2018-03-11T01:49:01.950Z,1004.1
2018-03-11T01:50:01.929Z,1003.98
2018-03-11T01:51:01.937Z,1004
2018-03-11T01:52:01.939Z,1003.97
2018-03-11T01:53:01.947Z,1004
2018-03-11T01:54:01.952Z,1003.99
2018-03-11T01:55:01.955Z,1003.98
2018-03-11T01:56:01.959Z,1003.93
2018-03-11T01:57:02.002Z,1003.92
2018-03-11T01:58:01.981Z,1003.89
2018-03-11T01:59:01.973Z,1003.83
2018-03-11T02:00:01.962Z,1003.78
2018-03-11T02:01:01.976Z,1003.75
2018-03-11T02:02:01.982Z,1003.76
2018-03-11T02:03:01.984Z,1003.74
2018-03-11T02:04:01.999Z,1003.72
2018-03-11T02:05:02.036Z,1003.68
2018-03-11T02:06:02.007Z,1003.69
2018-03-11T02:07:01.991Z,1003.63
2018-03-11T02:08:02.006Z,1003.63
2018-03-11T02:09:02.026Z,1003.61
2018-03-11T02:10:02.006Z,1003.55
2018-03-11T02:11:02.022Z,1003.57
2018-03-11T02:12:02.023Z,1003.51
2018-03-11T02:13:02.018Z,1003.44
2018-03-11T02:14:02.027Z,1003.45
2018-03-11T02:15:02.061Z,1003.42
2018-03-11T02:16:02.027Z,1003.39
2018-03-11T02:17:02.034Z,1003.39
2018-03-11T02:18:02.042Z,1003.38
2018-03-11T02:19:02.042Z,1003.36
2018-03-11T02:20:02.057Z,1003.34
2018-03-11T02:21:02.047Z,1003.29
2018-03-11T02:22:02.056Z,1003.24
2018-03-11T02:23:02.051Z,1003.22
2018-03-11T02:24:02.060Z,1003.17
2018-03-11T02:25:02.062Z,1003.17
2018-03-11T02:26:02.065Z,1003.12
2018-03-11T02:27:02.082Z,1003.15
2018-03-11T02:28:02.063Z,1003.14
2018-03-11T02:29:02.066Z,1003.09
2018-03-11T02:30:02.082Z,1003.11
2018-03-11T02:31:02.066Z,1003.11
2018-03-11T02:32:02.082Z,1003.16
2018-03-11T02:33:02.111Z,1003.13
2018-03-11T02:34:02.091Z,1003.09
2018-03-11T02:35:02.093Z,1003.11
2018-03-11T02:36:02.113Z,1003.07
2018-03-11T02:37:02.093Z,1003.03
2018-03-11T02:38:02.089Z,1003.01
2018-03-11T02:39:02.096Z,1003
2018-03-11T02:40:02.101Z,1002.96
2018-03-11T02:41:02.139Z,1002.98
2018-03-11T02:42:02.112Z,1002.99
2018-03-11T02:43:02.112Z,1002.95
2018-03-11T02:44:02.126Z,1003
2018-03-11T02:45:02.150Z,1002.94
2018-03-11T02:46:02.140Z,1002.96
2018-03-11T02:47:02.155Z,1002.95
2018-03-11T02:48:02.160Z,1002.93
2018-03-11T02:49:02.225Z,1002.92
2018-03-11T02:50:02.161Z,1002.95
2018-03-11T02:51:02.170Z,1002.95
2018-03-11T02:52:02.172Z,1002.95
2018-03-11T02:53:02.174Z,1002.96
2018-03-11T02:54:02.190Z,1002.9
2018-03-11T02:55:02.176Z,1002.86
2018-03-11T02:56:02.177Z,1002.84
2018-03-11T02:57:02.171Z,1002.79
2018-03-11T02:58:02.185Z,1002.8
2018-03-11T02:59:02.192Z,1002.82
2018-03-11T03:00:02.181Z,1002.8
2018-03-11T03:01:02.203Z,1002.81
2018-03-11T03:02:02.192Z,1002.82
2018-03-11T03:03:02.191Z,1002.84
2018-03-11T03:04:02.192Z,1002.84
2018-03-11T03:05:02.199Z,1002.8
2018-03-11T03:06:02.196Z,1002.78
2018-03-11T03:07:02.201Z,1002.82
2018-03-11T03:08:02.208Z,1002.83
2018-03-11T03:09:02.202Z,1002.82
2018-03-11T03:10:02.458Z,1002.83
2018-03-11T03:11:02.219Z,1002.82
2018-03-11T03:12:02.221Z,1002.85
2018-03-11T03:13:02.218Z,1002.85
2018-03-11T03:14:02.227Z,1002.86
2018-03-11T03:15:02.259Z,1002.8
2018-03-11T03:16:02.245Z,1002.74
2018-03-11T03:17:02.245Z,1002.81
2018-03-11T03:18:02.246Z,1002.8
2018-03-11T03:19:02.240Z,1002.78
2018-03-11T03:20:02.247Z,1002.8
2018-03-11T03:21:02.252Z,1002.79
2018-03-11T03:22:02.255Z,1002.71
2018-03-11T03:23:02.258Z,1002.69
2018-03-11T03:24:02.268Z,1002.68
2018-03-11T03:25:02.269Z,1002.66
2018-03-11T03:26:02.302Z,1002.59
2018-03-11T03:27:02.276Z,1002.67
2018-03-11T03:28:02.281Z,1002.68
2018-03-11T03:29:02.282Z,1002.72
2018-03-11T03:30:02.287Z,1002.74
2018-03-11T03:31:02.586Z,1002.75
2018-03-11T03:32:02.347Z,1002.76
2018-03-11T03:33:02.300Z,1002.77
2018-03-11T03:34:02.291Z,1002.76
2018-03-11T03:35:02.288Z,1002.79
2018-03-11T03:36:02.319Z,1002.76
2018-03-11T03:37:02.297Z,1002.71
2018-03-11T03:38:02.292Z,1002.81
2018-03-11T03:39:02.289Z,1002.81
2018-03-11T03:40:02.292Z,1002.84
2018-03-11T03:41:02.301Z,1002.85
2018-03-11T03:42:02.599Z,1002.78
2018-03-11T03:43:02.408Z,1002.78
2018-03-11T03:44:02.319Z,1002.79
2018-03-11T03:45:02.405Z,1002.8
2018-03-11T03:46:02.393Z,1002.75
2018-03-11T03:47:02.425Z,1002.74
2018-03-11T03:48:02.331Z,1002.77
2018-03-11T03:49:02.411Z,1002.8
2018-03-11T03:50:02.462Z,1002.77
2018-03-11T03:51:02.343Z,1002.78
2018-03-11T03:52:02.490Z,1002.81
2018-03-11T03:53:02.348Z,1002.76
2018-03-11T03:54:02.343Z,1002.75
2018-03-11T03:55:02.363Z,1002.73
2018-03-11T03:56:02.343Z,1002.71
2018-03-11T03:57:02.345Z,1002.72
2018-03-11T03:58:02.357Z,1002.76
2018-03-11T03:59:02.360Z,1002.72
2018-03-11T04:00:02.362Z,1002.73
2018-03-11T04:01:02.369Z,1002.7
2018-03-11T04:02:02.425Z,1002.72
2018-03-11T04:03:02.389Z,1002.69
2018-03-11T04:04:02.360Z,1002.69
2018-03-11T04:05:02.360Z,1002.67
2018-03-11T04:06:02.469Z,1002.67
2018-03-11T04:07:02.374Z,1002.69
2018-03-11T04:08:02.436Z,1002.65
2018-03-11T04:09:02.391Z,1002.6
2018-03-11T04:10:02.461Z,1002.57
2018-03-11T04:11:02.413Z,1002.56
2018-03-11T04:12:02.407Z,1002.52
2018-03-11T04:13:02.423Z,1002.51
2018-03-11T04:14:02.425Z,1002.48
2018-03-11T04:15:02.436Z,1002.46
2018-03-11T04:16:02.406Z,1002.39
2018-03-11T04:17:02.460Z,1002.37
2018-03-11T04:18:02.442Z,1002.39
2018-03-11T04:19:02.417Z,1002.34
2018-03-11T04:20:02.419Z,1002.33
2018-03-11T04:21:02.462Z,1002.38
2018-03-11T04:22:02.444Z,1002.31
2018-03-11T04:23:02.478Z,1002.3
2018-03-11T04:24:02.447Z,1002.25
2018-03-11T04:25:02.455Z,1002.28
2018-03-11T04:26:02.473Z,1002.18
2018-03-11T04:27:02.469Z,1002.21
2018-03-11T04:28:02.481Z,1002.16
2018-03-11T04:29:02.462Z,1002.19
2018-03-11T04:30:02.454Z,1002.17
2018-03-11T04:31:02.495Z,1002.16
2018-03-11T04:32:02.499Z,1002.21
2018-03-11T04:33:02.515Z,1002.14
2018-03-11T04:34:02.487Z,1002.16
2018-03-11T04:35:02.517Z,1002.13
2018-03-11T04:36:02.497Z,1002.1
2018-03-11T04:37:02.509Z,1002.08
2018-03-11T04:38:02.763Z,1002.04
2018-03-11T04:39:02.491Z,1002.07
2018-03-11T04:40:02.516Z,1002.03
2018-03-11T04:41:02.503Z,1002.05
2018-03-11T04:42:02.489Z,1002.06
2018-03-11T04:43:02.534Z,1002.05
2018-03-11T04:44:02.570Z,1002.02
2018-03-11T04:45:02.501Z,1002
2018-03-11T04:46:02.506Z,1002.03
2018-03-11T04:47:02.548Z,1002.05
2018-03-11T04:48:02.565Z,1002.05
2018-03-11T04:49:02.558Z,1002.01
2018-03-11T04:50:02.537Z,1002.09
2018-03-11T04:51:02.538Z,1002.08
2018-03-11T04:52:02.555Z,1002.11
2018-03-11T04:53:02.523Z,1002.09
2018-03-11T04:54:02.524Z,1002.09
2018-03-11T04:55:02.535Z,1002.08
2018-03-11T04:56:02.592Z,1002.1
2018-03-11T04:57:02.536Z,1002.05
2018-03-11T04:58:02.542Z,1002.04
2018-03-11T04:59:02.847Z,1002.01
2018-03-11T05:00:02.544Z,1002.02
2018-03-11T05:01:02.562Z,1001.96
2018-03-11T05:02:02.564Z,1001.94
2018-03-11T05:03:02.562Z,1001.92
2018-03-11T05:04:02.586Z,1001.88
2018-03-11T05:05:02.621Z,1001.83
2018-03-11T05:06:02.593Z,1001.83
2018-03-11T05:07:02.573Z,1001.83
2018-03-11T05:08:02.724Z,1001.78
2018-03-11T05:09:02.570Z,1001.8
2018-03-11T05:10:02.592Z,1001.76
2018-03-11T05:11:02.571Z,1001.71
2018-03-11T05:12:02.567Z,1001.69
2018-03-11T05:13:02.578Z,1001.73
2018-03-11T05:14:02.582Z,1001.69
2018-03-11T05:15:02.850Z,1001.63
2018-03-11T05:16:02.588Z,1001.62
2018-03-11T05:17:02.592Z,1001.63
2018-03-11T05:18:02.598Z,1001.61
2018-03-11T05:19:02.604Z,1001.61
2018-03-11T05:20:02.626Z,1001.6
2018-03-11T05:21:02.600Z,1001.57
2018-03-11T05:22:02.610Z,1001.6
2018-03-11T05:23:02.654Z,1001.56
2018-03-11T05:24:02.626Z,1001.52
2018-03-11T05:25:02.611Z,1001.5
2018-03-11T05:26:02.677Z,1001.44
2018-03-11T05:27:02.621Z,1001.41
2018-03-11T05:28:02.629Z,1001.41
2018-03-11T05:29:02.625Z,1001.41
2018-03-11T05:30:02.626Z,1001.37
2018-03-11T05:31:02.636Z,1001.37
2018-03-11T05:32:02.641Z,1001.38
2018-03-11T05:33:02.648Z,1001.4
2018-03-11T05:34:02.658Z,1001.38
2018-03-11T05:35:02.668Z,1001.36
2018-03-11T05:36:02.668Z,1001.39
2018-03-11T05:37:02.673Z,1001.32
2018-03-11T05:38:02.681Z,1001.3
2018-03-11T05:39:02.674Z,1001.26
2018-03-11T05:40:02.679Z,1001.28
2018-03-11T05:41:02.684Z,1001.25
2018-03-11T05:42:02.707Z,1001.25
2018-03-11T05:43:02.685Z,1001.23
2018-03-11T05:44:02.686Z,1001.16
2018-03-11T05:45:02.695Z,1001.13
2018-03-11T05:46:02.703Z,1001.11
2018-03-11T05:47:02.729Z,1001.02
2018-03-11T05:48:02.710Z,1001
2018-03-11T05:49:02.706Z,1000.97
2018-03-11T05:50:02.711Z,1000.96
2018-03-11T05:51:02.714Z,1000.9
2018-03-11T05:52:02.761Z,1000.87
2018-03-11T05:53:02.722Z,1000.86
2018-03-11T05:54:02.717Z,1000.8
2018-03-11T05:55:02.738Z,1000.8
2018-03-11T05:56:02.743Z,1000.8
2018-03-11T05:57:02.737Z,1000.73
2018-03-11T05:58:02.742Z,1000.73
2018-03-11T05:59:02.740Z,1000.72
2018-03-11T06:00:02.765Z,1000.73
2018-03-11T06:01:02.751Z,1000.77
2018-03-11T06:02:02.773Z,1000.8
2018-03-11T06:03:02.759Z,1000.78
2018-03-11T06:04:02.785Z,1000.76
2018-03-11T06:05:02.764Z,1000.74
2018-03-11T06:06:02.770Z,1000.8
2018-03-11T06:07:02.773Z,1000.76
2018-03-11T06:08:02.772Z,1000.76
2018-03-11T06:09:02.775Z,1000.79
2018-03-11T06:10:02.779Z,1000.71
2018-03-11T06:11:02.805Z,1000.75
2018-03-11T06:12:02.780Z,1000.69
2018-03-11T06:13:02.782Z,1000.64
2018-03-11T06:14:02.790Z,1000.62
2018-03-11T06:15:02.795Z,1000.56
2018-03-11T06:16:02.802Z,1000.55
2018-03-11T06:17:02.802Z,1000.47
2018-03-11T06:18:02.832Z,1000.45
2018-03-11T06:19:02.840Z,1000.47
2018-03-11T06:20:02.844Z,1000.5
2018-03-11T06:21:02.807Z,1000.52
2018-03-11T06:22:02.803Z,1000.54
2018-03-11T06:23:02.808Z,1000.55
2018-03-11T06:24:02.819Z,1000.56
2018-03-11T06:25:02.828Z,1000.57
2018-03-11T06:26:02.829Z,1000.58
2018-03-11T06:27:02.832Z,1000.57
2018-03-11T06:28:02.830Z,1000.56
2018-03-11T06:29:02.836Z,1000.53
2018-03-11T06:30:02.855Z,1000.48
2018-03-11T06:31:02.845Z,1000.49
2018-03-11T06:32:02.849Z,1000.46
2018-03-11T06:33:02.852Z,1000.49
2018-03-11T06:34:02.864Z,1000.45
2018-03-11T06:35:02.867Z,1000.46
2018-03-11T06:36:02.869Z,1000.39
2018-03-11T06:37:02.882Z,1000.4
2018-03-11T06:38:02.881Z,1000.42
2018-03-11T06:39:02.892Z,1000.43
2018-03-11T06:40:02.883Z,1000.42
2018-03-11T06:41:02.911Z,1000.37
2018-03-11T06:42:02.890Z,1000.35
2018-03-11T06:43:02.895Z,1000.31
2018-03-11T06:44:02.887Z,1000.29
2018-03-11T06:45:02.893Z,1000.22
2018-03-11T06:46:02.935Z,1000.24
2018-03-11T06:47:02.912Z,1000.22
2018-03-11T06:48:02.936Z,1000.16
2018-03-11T06:49:02.915Z,1000.09
2018-03-11T06:50:02.916Z,1000.03
2018-03-11T06:51:02.934Z,1000.01
2018-03-11T06:52:02.914Z,999.98
2018-03-11T06:53:02.909Z,999.95
2018-03-11T06:54:02.920Z,999.9
2018-03-11T06:55:02.913Z,999.93
2018-03-11T06:56:02.951Z,999.93
2018-03-11T06:57:02.926Z,999.9
2018-03-11T06:58:03.007Z,999.92
2018-03-11T06:59:02.938Z,999.92
2018-03-11T07:00:02.940Z,999.98
2018-03-11T07:01:02.941Z,1000.04
2018-03-11T07:02:02.988Z,1000.08
2018-03-11T07:03:02.947Z,1000.13
2018-03-11T07:04:02.957Z,1000.21
2018-03-11T07:05:02.960Z,1000.24
2018-03-11T07:06:02.969Z,1000.22
2018-03-11T07:07:02.960Z,1000.3
2018-03-11T07:08:02.980Z,1000.33
2018-03-11T07:09:02.965Z,1000.39
2018-03-11T07:10:02.991Z,1000.46
2018-03-11T07:11:02.972Z,1000.57
2018-03-11T07:12:02.983Z,1000.62
2018-03-11T07:13:03.064Z,1000.65
2018-03-11T07:14:02.980Z,1000.65
2018-03-11T07:15:02.978Z,1000.65
2018-03-11T07:16:02.970Z,1000.66
2018-03-11T07:17:02.984Z,1000.7
2018-03-11T07:18:02.985Z,1000.68
2018-03-11T07:19:02.991Z,1000.74
2018-03-11T07:20:02.987Z,1000.69
2018-03-11T07:21:02.989Z,1000.7
2018-03-11T07:22:02.987Z,1000.72
2018-03-11T07:23:02.992Z,1000.77
2018-03-11T07:24:03.000Z,1000.8
2018-03-11T07:25:03.003Z,1000.81
2018-03-11T07:26:03.008Z,1000.84
2018-03-11T07:27:03.036Z,1000.79
2018-03-11T07:28:03.020Z,1000.8
2018-03-11T07:29:03.010Z,1000.82
2018-03-11T07:30:03.008Z,1000.79
2018-03-11T07:31:03.022Z,1000.77
2018-03-11T07:32:03.006Z,1000.7
2018-03-11T07:33:03.003Z,1000.7
2018-03-11T07:34:03.021Z,1000.67
2018-03-11T07:35:03.028Z,1000.63
2018-03-11T07:36:03.081Z,1000.65
2018-03-11T07:37:03.036Z,1000.6
2018-03-11T07:38:03.035Z,1000.59
2018-03-11T07:39:03.032Z,1000.58
2018-03-11T07:40:03.044Z,1000.52
2018-03-11T07:41:03.045Z,1000.47
2018-03-11T07:42:03.051Z,1000.44
2018-03-11T07:43:03.052Z,1000.44
2018-03-11T07:44:03.048Z,1000.47
2018-03-11T07:45:03.058Z,1000.46
2018-03-11T07:46:03.056Z,1000.47
2018-03-11T07:47:03.064Z,1000.45
2018-03-11T07:48:03.061Z,1000.47
2018-03-11T07:49:03.072Z,1000.43
2018-03-11T07:50:03.080Z,1000.42
2018-03-11T07:51:03.074Z,1000.4
2018-03-11T07:52:03.071Z,1000.4
2018-03-11T07:53:03.088Z,1000.44
2018-03-11T07:54:03.152Z,1000.39
2018-03-11T07:55:03.080Z,1000.43
2018-03-11T07:56:03.095Z,1000.4
2018-03-11T07:57:03.115Z,1000.37
2018-03-11T07:58:03.117Z,1000.37
2018-03-11T07:59:03.138Z,1000.35
2018-03-11T08:00:03.108Z,1000.36
2018-03-11T08:01:03.136Z,1000.37
2018-03-11T08:02:03.106Z,1000.44
2018-03-11T08:03:03.119Z,1000.45
2018-03-11T08:04:03.120Z,1000.51
2018-03-11T08:05:04.154Z,1000.48
2018-03-11T08:06:03.133Z,1000.45
2018-03-11T08:07:03.140Z,1000.48
2018-03-11T08:08:03.136Z,1000.5
2018-03-11T08:09:03.137Z,1000.49
2018-03-11T08:10:03.144Z,1000.48
2018-03-11T08:11:03.135Z,1000.5
2018-03-11T08:12:03.141Z,1000.53
2018-03-11T08:13:03.147Z,1000.57
2018-03-11T08:14:03.163Z,1000.69
2018-03-11T08:15:03.157Z,1000.76
2018-03-11T08:16:03.165Z,1000.79
2018-03-11T08:17:03.171Z,1000.84
2018-03-11T08:18:03.161Z,1000.85
2018-03-11T08:19:03.172Z,1000.89
2018-03-11T08:20:03.177Z,1000.85
2018-03-11T08:21:03.193Z,1000.82
2018-03-11T08:22:03.207Z,1000.92
2018-03-11T08:23:03.203Z,1000.99
2018-03-11T08:24:03.191Z,1001.05
2018-03-11T08:25:03.179Z,1001.08
2018-03-11T08:26:03.182Z,1001.14
2018-03-11T08:27:03.185Z,1001.17
2018-03-11T08:28:03.215Z,1001.16
2018-03-11T08:29:03.216Z,1001.14
2018-03-11T08:30:03.190Z,1001.18
2018-03-11T08:31:03.194Z,1001.22
2018-03-11T08:32:03.192Z,1001.25
2018-03-11T08:33:03.254Z,1001.18
2018-03-11T08:34:03.205Z,1001.18
2018-03-11T08:35:03.205Z,1001.15
2018-03-11T08:36:03.301Z,1001.11
2018-03-11T08:37:03.214Z,1001.11
2018-03-11T08:38:03.236Z,1001.09
2018-03-11T08:39:03.222Z,1001.1
2018-03-11T08:40:03.220Z,1001.08
2018-03-11T08:41:03.219Z,1001.13
2018-03-11T08:42:03.222Z,1001.16
2018-03-11T08:43:03.229Z,1001.12
2018-03-11T08:44:03.228Z,1001.11
2018-03-11T08:45:03.345Z,1001.09
2018-03-11T08:46:03.240Z,1001.09
2018-03-11T08:47:03.238Z,1001.17
2018-03-11T08:48:03.241Z,1001.2
2018-03-11T08:49:03.255Z,1001.21
2018-03-11T08:50:03.264Z,1001.2
2018-03-11T08:51:03.260Z,1001.19
2018-03-11T08:52:03.268Z,1001.2
2018-03-11T08:53:03.265Z,1001.23
2018-03-11T08:54:03.267Z,1001.35
2018-03-11T08:55:03.283Z,1001.37
2018-03-11T08:56:03.285Z,1001.34
2018-03-11T08:57:03.287Z,1001.31
2018-03-11T08:58:03.305Z,1001.3
2018-03-11T08:59:03.315Z,1001.32
2018-03-11T09:00:03.290Z,1001.35
2018-03-11T09:01:03.300Z,1001.42
2018-03-11T09:02:03.302Z,1001.46
2018-03-11T09:03:03.304Z,1001.42
2018-03-11T09:04:03.309Z,1001.4
2018-03-11T09:05:03.410Z,1001.38
2018-03-11T09:06:03.302Z,1001.36
2018-03-11T09:07:03.313Z,1001.33
2018-03-11T09:08:03.309Z,1001.33
2018-03-11T09:09:03.317Z,1001.36
2018-03-11T09:10:03.321Z,1001.35
2018-03-11T09:11:03.340Z,1001.41
2018-03-11T09:12:03.331Z,1001.4
2018-03-11T09:13:03.324Z,1001.4
2018-03-11T09:14:03.343Z,1001.45
2018-03-11T09:15:03.342Z,1001.42
2018-03-11T09:16:03.356Z,1001.45
2018-03-11T09:17:03.366Z,1001.42
2018-03-11T09:18:03.365Z,1001.51
2018-03-11T09:19:03.369Z,1001.55
2018-03-11T09:20:03.376Z,1001.6
2018-03-11T09:21:03.380Z,1001.55
2018-03-11T09:22:03.389Z,1001.58
2018-03-11T09:23:03.367Z,1001.64
2018-03-11T09:24:03.371Z,1001.65
2018-03-11T09:25:03.378Z,1001.63
2018-03-11T09:26:03.431Z,1001.62
2018-03-11T09:27:03.388Z,1001.59
2018-03-11T09:28:03.396Z,1001.52
2018-03-11T09:29:03.409Z,1001.56
2018-03-11T09:30:03.399Z,1001.54
2018-03-11T09:31:03.410Z,1001.56
2018-03-11T09:32:03.411Z,1001.62
2018-03-11T09:33:03.441Z,1001.57
2018-03-11T09:34:03.444Z,1001.58
2018-03-11T09:35:03.456Z,1001.61
2018-03-11T09:36:03.476Z,1001.61
2018-03-11T09:37:03.476Z,1001.67
2018-03-11T09:38:03.480Z,1001.66
2018-03-11T09:39:03.484Z,1001.67
2018-03-11T09:40:03.459Z,1001.69
2018-03-11T09:41:03.456Z,1001.78
2018-03-11T09:42:03.475Z,1001.77
2018-03-11T09:43:03.475Z,1001.78
2018-03-11T09:44:03.472Z,1001.76
2018-03-11T09:45:03.502Z,1001.75
2018-03-11T09:46:03.452Z,1001.74
2018-03-11T09:47:03.466Z,1001.75
2018-03-11T09:48:03.454Z,1001.76
2018-03-11T09:49:03.491Z,1001.76
2018-03-11T09:50:03.467Z,1001.78
2018-03-11T09:51:03.465Z,1001.79
2018-03-11T09:52:03.472Z,1001.83
2018-03-11T09:53:03.488Z,1001.89
2018-03-11T09:54:03.478Z,1001.88
2018-03-11T09:55:03.491Z,1001.92
2018-03-11T09:56:03.497Z,1001.94
2018-03-11T09:57:03.503Z,1001.93
2018-03-11T09:58:03.560Z,1001.9
2018-03-11T09:59:03.516Z,1001.88
2018-03-11T10:00:03.515Z,1001.89
2018-03-11T10:01:03.523Z,1001.93
2018-03-11T10:02:03.708Z,1001.98
2018-03-11T10:03:03.606Z,1001.99
2018-03-11T10:04:03.536Z,1001.99
2018-03-11T10:05:03.530Z,1002.02
2018-03-11T10:06:03.528Z,1002.11
2018-03-11T10:07:03.564Z,1002.06
2018-03-11T10:08:03.545Z,1001.96
2018-03-11T10:09:03.611Z,1001.93
2018-03-11T10:10:03.551Z,1001.9
2018-03-11T10:11:03.552Z,1001.87
2018-03-11T10:12:03.552Z,1001.85
2018-03-11T10:13:03.580Z,1001.8
2018-03-11T10:14:03.565Z,1001.84
2018-03-11T10:15:03.570Z,1001.8
2018-03-11T10:16:03.562Z,1001.78
2018-03-11T10:17:03.566Z,1001.86
2018-03-11T10:18:03.853Z,1001.85
2018-03-11T10:19:03.594Z,1001.85
2018-03-11T10:20:03.580Z,1001.82
2018-03-11T10:21:03.660Z,1001.82
2018-03-11T10:22:03.577Z,1001.81
2018-03-11T10:23:03.605Z,1001.88
2018-03-11T10:24:03.594Z,1001.98
2018-03-11T10:25:03.605Z,1001.94
2018-03-11T10:26:03.584Z,1001.92
2018-03-11T10:27:03.602Z,1001.89
2018-03-11T10:28:03.719Z,1001.84
2018-03-11T10:29:03.602Z,1001.84
2018-03-11T10:30:03.834Z,1001.85
2018-03-11T10:31:03.608Z,1001.84
2018-03-11T10:32:03.641Z,1001.84
2018-03-11T10:33:03.681Z,1001.82
2018-03-11T10:34:03.613Z,1001.77
2018-03-11T10:35:03.625Z,1001.8
2018-03-11T10:36:03.619Z,1001.87
2018-03-11T10:37:03.646Z,1001.95
2018-03-11T10:38:03.620Z,1001.98
2018-03-11T10:39:03.624Z,1001.98
2018-03-11T10:40:03.694Z,1001.95
2018-03-11T10:41:03.627Z,1001.92
2018-03-11T10:42:03.636Z,1001.9
2018-03-11T10:43:03.647Z,1001.88
2018-03-11T10:44:03.639Z,1001.83
2018-03-11T10:45:03.699Z,1001.77
2018-03-11T10:46:03.652Z,1001.7
2018-03-11T10:47:03.655Z,1001.63
2018-03-11T10:48:03.658Z,1001.6
2018-03-11T10:49:03.650Z,1001.65
2018-03-11T10:50:03.645Z,1001.62
2018-03-11T10:51:03.657Z,1001.65
2018-03-11T10:52:03.668Z,1001.6
2018-03-11T10:53:03.980Z,1001.59
2018-03-11T10:54:03.685Z,1001.49
2018-03-11T10:55:03.689Z,1001.44
2018-03-11T10:56:03.682Z,1001.38
2018-03-11T10:57:03.699Z,1001.32
2018-03-11T10:58:03.842Z,1001.27
2018-03-11T10:59:03.722Z,1001.2
2018-03-11T11:00:03.697Z,1001.19
2018-03-11T11:01:03.695Z,1001.15
2018-03-11T11:02:03.802Z,1001.14
2018-03-11T11:03:03.739Z,1001.11
2018-03-11T11:04:03.718Z,1001.11
2018-03-11T11:05:03.718Z,1001.14
2018-03-11T11:06:03.715Z,1001.15
2018-03-11T11:07:03.717Z,1001.09
2018-03-11T11:08:03.754Z,1001.06
2018-03-11T11:09:03.718Z,1000.93
2018-03-11T11:10:03.721Z,1000.78
2018-03-11T11:11:03.775Z,1000.65
2018-03-11T11:12:05.471Z,1000.53
2018-03-11T11:13:05.081Z,1000.51
2018-03-11T11:14:04.254Z,1000.56
2018-03-11T11:15:03.756Z,1000.66
2018-03-11T11:16:03.784Z,1000.64
2018-03-11T11:17:03.792Z,1000.59
2018-03-11T11:18:03.817Z,1000.53
2018-03-11T11:19:03.814Z,1000.42
2018-03-11T11:20:03.772Z,1000.33
2018-03-11T11:21:03.834Z,1000.23
2018-03-11T11:22:08.980Z,1000.16
2018-03-11T11:23:08.131Z,1000.07
2018-03-11T11:24:03.803Z,1000.01
2018-03-11T11:25:03.875Z,999.91
2018-03-11T11:26:03.866Z,999.71
2018-03-11T11:27:03.806Z,999.5
2018-03-11T11:28:03.810Z,999.54
2018-03-11T11:29:03.888Z,999.58
2018-03-11T11:30:03.828Z,999.63
2018-03-11T11:31:03.903Z,999.79
2018-03-11T11:32:03.840Z,999.94
2018-03-11T11:33:03.840Z,999.95
2018-03-11T11:34:03.845Z,999.92
2018-03-11T11:35:03.842Z,999.88
2018-03-11T11:36:03.851Z,999.82
2018-03-11T11:37:03.859Z,999.71
2018-03-11T11:38:04.024Z,999.68
2018-03-11T11:39:03.864Z,999.61
2018-03-11T11:40:03.907Z,999.58
2018-03-11T11:41:03.868Z,999.5
2018-03-11T11:42:03.875Z,999.36
2018-03-11T11:43:03.933Z,999.33
2018-03-11T11:44:03.895Z,999.34
2018-03-11T11:45:03.881Z,999.35
2018-03-11T11:46:03.909Z,999.35
2018-03-11T11:47:03.923Z,999.24
2018-03-11T11:48:03.901Z,999.24
2018-03-11T11:49:03.888Z,999.3
2018-03-11T11:50:03.902Z,999.37
2018-03-11T11:51:03.902Z,999.39
2018-03-11T11:52:03.908Z,999.35
2018-03-11T11:53:03.937Z,999.37
2018-03-11T11:54:03.911Z,999.42
2018-03-11T11:55:03.910Z,999.55
2018-03-11T11:56:03.914Z,999.57
2018-03-11T11:57:03.916Z,999.63
2018-03-11T11:58:04.172Z,999.55
2018-03-11T11:59:03.922Z,999.5
2018-03-11T12:00:03.915Z,999.47
2018-03-11T12:01:03.918Z,999.53
2018-03-11T12:02:03.927Z,999.62
2018-03-11T12:03:03.954Z,999.72
2018-03-11T12:04:03.937Z,999.72
2018-03-11T12:05:03.934Z,999.75
2018-03-11T12:06:03.929Z,999.71
2018-03-11T12:07:04.097Z,999.62
2018-03-11T12:08:03.947Z,999.6
2018-03-11T12:09:03.954Z,999.54
2018-03-11T12:10:04.003Z,999.47